Time;durP1;ratioP1;P1;durP2;ratioP2;P2;SDS_P1;SDS_P2;PMS_P1;PMS_P2;Temp;Humidity;BMP_temperature;BMP_pressure;BME280_temperature;BME280_humidity;BME280_pressure;Samples;Min_cycle;Max_cycle;Signal;HPM_P1;HPM_P2
2022/01/27 00:05:27;;;;;;;43.63;23.88;;;5.00;99.90;;;;;;5010431;28;20053;-53
2022/01/27 00:08:10;;;;;;;45.20;23.67;;;4.90;99.90;;;;;;5011718;28;20053;-52
2022/01/27 00:11:03;;;;;;;45.00;23.15;;;4.90;99.90;;;;;;5012044;28;20038;-52
2022/01/27 00:13:42;;;;;;;45.25;23.73;;;4.90;99.90;;;;;;5012931;28;20042;-53
2022/01/27 00:16:24;;;;;;;46.80;23.80;;;4.90;99.90;;;;;;4994754;28;20049;-49
2022/01/27 00:18:52;;;;;;;50.35;24.75;;;4.90;99.90;;;;;;5011865;28;20050;-51
2022/01/27 00:21:21;;;;;;;48.90;22.90;;;4.90;99.90;;;;;;5012436;28;20067;-53
2022/01/27 00:23:48;;;;;;;49.38;23.85;;;4.90;99.90;;;;;;5011825;28;20030;-52
2022/01/27 00:26:16;;;;;;;45.08;24.02;;;4.90;99.90;;;;;;5011680;28;20193;-52
2022/01/27 00:28:43;;;;;;;42.13;22.92;;;5.00;99.90;;;;;;5012014;28;20069;-49
2022/01/27 00:31:09;;;;;;;43.08;23.60;;;5.00;99.90;;;;;;5012173;28;20044;-46
2022/01/27 00:33:35;;;;;;;44.67;22.10;;;5.00;99.90;;;;;;5012274;28;20030;-48
2022/01/27 00:36:03;;;;;;;44.22;23.17;;;5.00;99.90;;;;;;5012011;28;20059;-51
2022/01/27 00:38:29;;;;;;;47.85;23.35;;;5.00;99.90;;;;;;5012124;28;20034;-47
2022/01/27 00:40:55;;;;;;;40.88;21.67;;;5.00;99.90;;;;;;5011902;28;20141;-49
2022/01/27 00:43:21;;;;;;;39.58;21.05;;;5.00;99.90;;;;;;5012108;28;20129;-51
2022/01/27 00:45:46;;;;;;;41.33;21.25;;;5.00;99.90;;;;;;5012122;28;20038;-51
2022/01/27 00:48:15;;;;;;;39.88;20.95;;;5.00;99.90;;;;;;5012081;28;20041;-48
2022/01/27 00:50:41;;;;;;;39.05;20.67;;;5.10;99.90;;;;;;5011559;28;20038;-50
2022/01/27 00:53:22;;;;;;;42.67;20.92;;;5.10;99.90;;;;;;5011902;28;20038;-51
2022/01/27 00:55:48;;;;;;;43.50;20.70;;;5.10;99.90;;;;;;5011360;28;20045;-51
2022/01/27 00:58:34;;;;;;;40.47;21.08;;;5.10;99.90;;;;;;5011843;28;20073;-49
2022/01/27 01:01:03;;;;;;;40.58;20.75;;;5.10;99.90;;;;;;5011375;28;20045;-50
2022/01/27 01:03:37;;;;;;;40.80;22.23;;;5.10;99.90;;;;;;5011617;28;20053;-51
2022/01/27 01:06:19;;;;;;;43.03;20.58;;;5.10;99.90;;;;;;4995109;28;20077;-50
2022/01/27 01:30:32;;;;;;;44.78;21.95;;;5.20;99.90;;;;;;5023855;28;20088;-51
2022/01/27 01:32:58;;;;;;;44.67;21.70;;;5.00;99.90;;;;;;5016307;28;20045;-53
2022/01/27 01:35:30;;;;;;;40.88;21.45;;;5.00;99.90;;;;;;4995259;28;20117;-52
2022/01/27 01:37:57;;;;;;;41.00;21.83;;;5.00;99.90;;;;;;5012962;28;20049;-50
2022/01/27 01:40:23;;;;;;;43.42;22.80;;;5.00;99.90;;;;;;5011027;28;20041;-51
2022/01/27 01:42:49;;;;;;;45.60;23.33;;;5.00;99.90;;;;;;5017534;28;20037;-49
2022/01/27 01:45:17;;;;;;;42.50;22.63;;;5.00;99.90;;;;;;5010837;28;20033;-49
2022/01/27 01:47:45;;;;;;;42.50;20.83;;;5.00;99.90;;;;;;5028110;28;20037;-50
2022/01/27 01:50:11;;;;;;;47.80;23.23;;;5.00;99.90;;;;;;5028885;28;20033;-46
2022/01/27 01:52:37;;;;;;;44.15;21.40;;;5.00;99.90;;;;;;5016045;28;20038;-51
2022/01/27 01:55:05;;;;;;;42.70;21.65;;;5.00;99.90;;;;;;5017841;28;20045;-48
2022/01/27 01:57:30;;;;;;;43.67;22.30;;;5.00;99.90;;;;;;5021380;28;20079;-49
2022/01/27 01:59:57;;;;;;;41.28;22.15;;;5.10;99.90;;;;;;5029506;28;20076;-51
2022/01/27 02:02:23;;;;;;;41.72;23.10;;;5.10;99.90;;;;;;5013937;28;20496;-50
2022/01/27 02:04:49;;;;;;;44.08;23.20;;;5.10;99.90;;;;;;5015898;28;20041;-54
2022/01/27 02:07:30;;;;;;;43.60;22.48;;;5.10;99.90;;;;;;5023781;28;20048;-49
2022/01/27 02:18:09;;;;;;;;;;;5.10;99.90;;;;;;5030577;28;20049;-50
2022/01/27 02:20:40;;;;;;;45.40;22.70;;;5.00;99.90;;;;;;5014259;28;19925;-51
2022/01/27 02:23:08;;;;;;;45.95;23.08;;;5.00;99.90;;;;;;5025096;28;20041;-48
2022/01/27 02:25:35;;;;;;;42.95;23.48;;;4.90;99.90;;;;;;5005649;28;20096;-48
2022/01/27 02:28:01;;;;;;;48.17;24.90;;;4.90;99.90;;;;;;5027556;28;20041;-53
2022/01/27 02:30:30;;;;;;;44.70;24.17;;;4.80;99.90;;;;;;5011172;28;20042;-49
2022/01/27 02:32:55;;;;;;;47.08;24.70;;;5.70;99.90;;;;;;5028368;28;20045;-53
2022/01/27 02:35:27;;;;;;;46.35;23.77;;;4.80;99.90;;;;;;4996159;28;20052;-48
2022/01/27 02:37:53;;;;;;;46.92;24.10;;;4.80;99.90;;;;;;5013989;28;20041;-51
2022/01/27 02:40:43;;;;;;;52.78;25.20;;;4.80;99.90;;;;;;5026752;28;20051;-49
2022/01/27 02:43:09;;;;;;;53.75;25.05;;;4.70;99.90;;;;;;4996212;28;20049;-50
2022/01/27 02:45:35;;;;;;;46.33;24.08;;;4.70;99.90;;;;;;5029030;28;20049;-53
2022/01/27 02:48:00;;;;;;;49.33;24.58;;;4.70;99.90;;;;;;5022788;28;20045;-50
2022/01/27 02:50:32;;;;;;;43.65;22.77;;;4.70;99.90;;;;;;5019886;28;20549;-54
2022/01/27 02:52:58;;;;;;;45.42;23.60;;;4.70;99.90;;;;;;5024158;28;20037;-50
2022/01/27 02:55:23;;;;;;;44.13;23.15;;;4.80;99.90;;;;;;5026964;28;20048;-50
2022/01/27 02:57:49;;;;;;;48.10;23.98;;;4.80;99.90;;;;;;5023567;28;20041;-52
2022/01/27 03:00:16;;;;;;;46.35;23.60;;;4.80;99.90;;;;;;5029157;28;20045;-54
2022/01/27 03:02:41;;;;;;;47.03;22.38;;;4.80;99.90;;;;;;5027694;28;20492;-50
2022/01/27 03:05:07;;;;;;;47.97;24.85;;;4.80;99.90;;;;;;5032825;28;20036;-51
2022/01/27 03:07:33;;;;;;;43.85;23.38;;;4.80;99.90;;;;;;5033394;28;20380;-47
2022/01/27 03:09:58;;;;;;;46.05;23.13;;;4.80;99.90;;;;;;5030507;28;20404;-50
2022/01/27 03:12:27;;;;;;;44.78;24.60;;;4.80;99.90;;;;;;5015528;28;20292;-54
2022/01/27 03:14:52;;;;;;;54.53;24.23;;;4.80;99.90;;;;;;5029252;28;20038;-53
2022/01/27 03:17:18;;;;;;;47.60;24.33;;;4.80;99.90;;;;;;5026743;28;20061;-51
2022/01/27 03:19:43;;;;;;;46.88;24.40;;;4.80;99.90;;;;;;5014533;28;20045;-52
2022/01/27 03:22:09;;;;;;;49.55;23.30;;;4.90;99.90;;;;;;5024315;28;20041;-50
2022/01/27 03:24:37;;;;;;;48.40;23.55;;;4.90;99.90;;;;;;5022964;28;20053;-51
2022/01/27 03:27:06;;;;;;;49.90;22.58;;;4.90;99.90;;;;;;5012731;28;20034;-52
2022/01/27 03:29:32;;;;;;;46.53;23.52;;;5.00;99.90;;;;;;5018889;28;20037;-52
2022/01/27 03:31:58;;;;;;;47.92;24.55;;;5.00;99.90;;;;;;5013382;28;20056;-53
2022/01/27 03:34:23;;;;;;;51.65;24.55;;;5.00;99.90;;;;;;5011928;28;20073;-46
2022/01/27 03:36:49;;;;;;;49.05;24.17;;;5.00;99.90;;;;;;5012220;28;20038;-53
2022/01/27 03:39:18;;;;;;;46.67;24.20;;;5.00;99.90;;;;;;5012805;28;20038;-49
2022/01/27 03:41:49;;;;;;;51.53;23.75;;;5.00;99.90;;;;;;5013144;28;20046;-50
2022/01/27 03:44:16;;;;;;;48.63;24.10;;;5.00;99.90;;;;;;5011796;28;20409;-51
2022/01/27 03:46:41;;;;;;;45.38;23.58;;;5.00;99.90;;;;;;5013085;28;20108;-49
2022/01/27 03:49:07;;;;;;;46.35;24.23;;;5.10;99.90;;;;;;5013116;28;20588;-52
2022/01/27 03:51:33;;;;;;;44.85;23.73;;;5.10;99.90;;;;;;4995433;28;20044;-53
2022/01/27 03:53:58;;;;;;;53.67;25.02;;;5.10;99.90;;;;;;5012973;28;20481;-51
2022/01/27 03:56:24;;;;;;;49.85;24.75;;;5.10;99.90;;;;;;5012479;28;20045;-51
2022/01/27 03:58:50;;;;;;;49.60;25.10;;;5.10;99.90;;;;;;5012755;28;20489;-50
2022/01/27 04:01:16;;;;;;;55.08;25.83;;;5.10;99.90;;;;;;5012924;28;20041;-52
2022/01/27 04:03:43;;;;;;;46.72;24.27;;;5.10;99.90;;;;;;5012760;28;20048;-53
2022/01/27 04:06:10;;;;;;;45.42;23.45;;;5.10;99.90;;;;;;5012413;28;20117;-48
2022/01/27 04:08:37;;;;;;;45.35;23.15;;;5.10;99.90;;;;;;5012146;28;20041;-50
2022/01/27 04:11:09;;;;;;;42.60;23.17;;;5.10;99.90;;;;;;5012145;28;20474;-53
2022/01/27 04:13:36;;;;;;;42.63;21.85;;;5.20;99.90;;;;;;5012584;28;20044;-48
2022/01/27 04:16:03;;;;;;;47.63;23.45;;;5.20;99.90;;;;;;5012545;28;20045;-52
2022/01/27 04:18:29;;;;;;;45.40;23.23;;;5.20;99.90;;;;;;5012303;28;20535;-49
2022/01/27 04:20:55;;;;;;;53.63;24.75;;;5.20;99.90;;;;;;5011879;28;20045;-50
2022/01/27 04:23:21;;;;;;;46.70;22.92;;;5.20;99.90;;;;;;5012240;28;20073;-50
2022/01/27 04:25:47;;;;;;;41.75;21.10;;;5.20;99.90;;;;;;5025480;28;20493;-54
2022/01/27 04:28:18;;;;;;;50.45;23.58;;;5.20;99.90;;;;;;5027025;28;20038;-52
2022/01/27 04:30:45;;;;;;;45.25;23.65;;;5.30;99.90;;;;;;5013523;28;20077;-52
2022/01/27 04:33:11;;;;;;;43.35;21.98;;;5.30;99.90;;;;;;5028684;28;20477;-52
2022/01/27 04:35:42;;;;;;;44.70;23.08;;;5.30;99.90;;;;;;4992741;28;20116;-53
2022/01/27 04:38:20;;;;;;;45.03;22.80;;;5.30;99.90;;;;;;5004906;28;20076;-51
2022/01/27 04:43:42;;;;;;;47.08;22.70;;;5.30;99.90;;;;;;5014640;28;20044;-54
2022/01/27 04:48:39;;;;;;;48.58;21.60;;;5.30;99.90;;;;;;5013949;28;20034;-52
2022/01/27 04:51:08;;;;;;;42.65;21.58;;;5.30;99.90;;;;;;5009032;28;20060;-48
2022/01/27 04:53:39;;;;;;;43.70;23.20;;;5.30;99.90;;;;;;5020182;28;20108;-49
2022/01/27 04:56:07;;;;;;;49.72;23.17;;;5.30;99.90;;;;;;5017149;28;20409;-50
2022/01/27 04:58:34;;;;;;;48.20;23.13;;;5.40;99.90;;;;;;4995238;28;20284;-50
2022/01/27 05:01:02;;;;;;;48.05;22.33;;;5.40;99.90;;;;;;5023289;28;20049;-51
2022/01/27 05:06:03;;;;;;;43.00;22.52;;;5.30;99.90;;;;;;5026639;28;20050;-49
2022/01/27 05:08:29;;;;;;;41.53;20.77;;;5.40;99.90;;;;;;5018935;28;20045;-52
2022/01/27 05:11:07;;;;;;;38.53;20.40;;;5.40;99.90;;;;;;5023918;28;20045;-53
2022/01/27 05:13:53;;;;;;;44.45;20.90;;;5.40;99.90;;;;;;5017585;28;20116;-54
2022/01/27 05:16:19;;;;;;;43.08;20.55;;;5.40;99.90;;;;;;5025386;28;20038;-52
2022/01/27 05:18:44;;;;;;;40.58;20.27;;;5.50;99.90;;;;;;5017794;28;20655;-52
2022/01/27 05:21:10;;;;;;;42.35;20.20;;;5.50;99.90;;;;;;5017136;28;20072;-53
2022/01/27 05:23:36;;;;;;;40.22;20.08;;;5.50;99.90;;;;;;5029734;28;20156;-52
2022/01/27 05:26:02;;;;;;;38.72;19.52;;;5.70;99.90;;;;;;5011565;28;20065;-51
2022/01/27 05:28:27;;;;;;;39.35;20.83;;;5.50;99.90;;;;;;5011228;28;20048;-55
2022/01/27 05:30:53;;;;;;;42.25;20.35;;;5.60;99.90;;;;;;5011581;28;20470;-51
2022/01/27 05:33:19;;;;;;;44.40;21.48;;;5.50;99.90;;;;;;5011066;28;20040;-50
2022/01/27 05:35:46;;;;;;;47.38;21.20;;;5.50;99.90;;;;;;5010989;28;20042;-53
2022/01/27 05:38:15;;;;;;;43.53;20.52;;;5.50;99.90;;;;;;5011363;28;20038;-49
2022/01/27 05:40:42;;;;;;;38.97;21.02;;;5.50;99.90;;;;;;5011419;28;20042;-49
2022/01/27 05:43:07;;;;;;;45.10;21.58;;;5.50;99.90;;;;;;5011192;28;20111;-51
2022/01/27 05:45:33;;;;;;;42.35;20.05;;;5.50;99.90;;;;;;5010870;28;20121;-53
2022/01/27 05:47:59;;;;;;;43.75;20.30;;;5.50;99.90;;;;;;4993544;28;20053;-50
2022/01/27 05:50:25;;;;;;;44.55;21.33;;;5.40;99.90;;;;;;5010955;28;20045;-47
2022/01/27 05:52:51;;;;;;;45.78;22.35;;;5.50;99.90;;;;;;5011218;28;20096;-51
2022/01/27 05:55:16;;;;;;;44.83;21.35;;;5.40;99.90;;;;;;5011119;28;20050;-52
2022/01/27 05:57:42;;;;;;;49.03;21.83;;;5.40;99.90;;;;;;5011188;28;20038;-49
2022/01/27 06:00:10;;;;;;;55.55;22.92;;;5.40;99.90;;;;;;5011108;28;20054;-49
2022/01/27 06:02:36;;;;;;;46.70;22.05;;;5.30;99.90;;;;;;4993733;28;20049;-52
2022/01/27 06:05:02;;;;;;;52.17;22.08;;;5.30;99.90;;;;;;5010866;28;20388;-50
2022/01/27 06:07:29;;;;;;;47.17;23.65;;;5.30;99.90;;;;;;5012329;28;20489;-53
2022/01/27 06:09:55;;;;;;;52.80;23.30;;;5.30;99.90;;;;;;5014232;28;20412;-53
2022/01/27 06:12:21;;;;;;;60.97;23.75;;;5.20;99.90;;;;;;5014406;28;20034;-54
2022/01/27 06:14:46;;;;;;;58.17;24.55;;;5.20;99.90;;;;;;5014888;28;20045;-52
2022/01/27 06:17:12;;;;;;;59.33;24.60;;;5.20;99.90;;;;;;5014483;28;20041;-52
2022/01/27 06:19:38;;;;;;;60.92;24.52;;;5.20;99.90;;;;;;5014519;28;20030;-50
2022/01/27 06:22:11;;;;;;;52.53;23.88;;;5.20;99.90;;;;;;4997221;28;20130;-51
2022/01/27 06:24:41;;;;;;;68.15;26.63;;;5.10;99.90;;;;;;5016344;28;20038;-54
2022/01/27 06:27:07;;;;;;;58.17;25.08;;;5.10;99.90;;;;;;5032547;28;20050;-51
2022/01/27 06:29:34;;;;;;;55.35;24.45;;;5.10;99.90;;;;;;5032853;28;20067;-54
2022/01/27 06:32:00;;;;;;;69.30;27.23;;;5.80;99.90;;;;;;5014369;28;20042;-50
2022/01/27 06:34:26;;;;;;;72.88;27.63;;;5.10;99.90;;;;;;5022192;28;20114;-50
2022/01/27 06:36:52;;;;;;;66.78;26.90;;;5.10;99.90;;;;;;5023932;28;20117;-55
2022/01/27 06:39:18;;;;;;;63.63;26.13;;;5.10;99.90;;;;;;5013671;28;20405;-51
2022/01/27 06:41:44;;;;;;;87.95;29.67;;;5.10;99.90;;;;;;5026033;28;20061;-50
2022/01/27 06:44:10;;;;;;;70.03;26.75;;;5.10;99.90;;;;;;5014114;28;20034;-53
2022/01/27 06:46:36;;;;;;;72.45;27.98;;;5.10;99.90;;;;;;5026111;28;20041;-51
2022/01/27 06:49:03;;;;;;;77.55;27.92;;;5.10;99.90;;;;;;5025347;28;20033;-49
2022/01/27 06:51:30;;;;;;;67.78;26.95;;;5.10;99.90;;;;;;5015405;28;20424;-47
2022/01/27 06:53:57;;;;;;;69.90;28.42;;;5.10;99.90;;;;;;5013682;28;20401;-48
2022/01/27 06:56:23;;;;;;;75.60;28.80;;;5.10;99.90;;;;;;5013669;28;20168;-50
2022/01/27 06:58:49;;;;;;;80.93;30.25;;;5.10;99.90;;;;;;5020956;28;20069;-50
2022/01/27 07:01:15;;;;;;;77.18;30.75;;;5.10;99.90;;;;;;5033574;28;20417;-50
2022/01/27 07:03:40;;;;;;;76.70;28.98;;;5.10;99.90;;;;;;5033543;28;20459;-49
2022/01/27 07:06:06;;;;;;;84.32;28.90;;;5.10;99.90;;;;;;5024305;28;20040;-52
2022/01/27 07:08:32;;;;;;;87.13;32.15;;;5.10;99.90;;;;;;5023097;28;20049;-49
2022/01/27 07:10:57;;;;;;;81.88;29.27;;;5.20;99.90;;;;;;5029040;28;20525;-51
2022/01/27 07:13:23;;;;;;;91.63;32.50;;;5.20;99.90;;;;;;5006508;28;20041;-47
2022/01/27 07:15:49;;;;;;;79.53;29.38;;;5.20;99.90;;;;;;5013511;28;20117;-51
2022/01/27 07:18:15;;;;;;;82.20;31.38;;;5.10;99.90;;;;;;5028743;28;20122;-52
2022/01/27 07:20:41;;;;;;;82.10;28.98;;;5.20;99.90;;;;;;5013593;28;20512;-49
2022/01/27 07:23:08;;;;;;;88.03;30.52;;;5.20;99.90;;;;;;5016327;28;20084;-55
2022/01/27 07:25:33;;;;;;;85.20;29.63;;;5.20;99.90;;;;;;5022974;28;20056;-51
2022/01/27 07:27:59;;;;;;;86.93;31.15;;;5.30;99.90;;;;;;5013422;28;20042;-50
2022/01/27 07:30:25;;;;;;;77.88;28.35;;;5.40;99.90;;;;;;5013100;28;20049;-47
2022/01/27 07:32:51;;;;;;;77.65;28.98;;;5.30;99.90;;;;;;5012953;28;20116;-52
2022/01/27 07:35:16;;;;;;;91.78;29.98;;;5.30;99.90;;;;;;5012928;28;20061;-50
2022/01/27 07:37:43;;;;;;;89.13;30.40;;;5.40;99.90;;;;;;5013064;28;20037;-50
2022/01/27 07:40:10;;;;;;;84.07;28.63;;;5.40;99.90;;;;;;5012343;28;20477;-52
2022/01/27 07:42:36;;;;;;;84.93;26.40;;;5.40;99.90;;;;;;5012607;28;20067;-51
2022/01/27 07:45:03;;;;;;;81.22;27.73;;;5.70;99.90;;;;;;5012794;28;20050;-51
2022/01/27 07:47:28;;;;;;;77.45;27.50;;;5.60;99.90;;;;;;5012991;28;20544;-53
2022/01/27 07:49:54;;;;;;;93.03;27.33;;;5.60;99.90;;;;;;5012156;28;20041;-49
2022/01/27 07:52:20;;;;;;;70.18;24.52;;;5.70;99.90;;;;;;5011942;28;20042;-49
2022/01/27 07:54:46;;;;;;;79.50;25.25;;;5.80;99.90;;;;;;5012822;28;20042;-51
2022/01/27 07:57:12;;;;;;;71.65;23.60;;;5.90;99.90;;;;;;5012342;28;20046;-49
2022/01/27 07:59:39;;;;;;;67.63;24.38;;;5.90;99.90;;;;;;5012576;28;20532;-51
2022/01/27 08:02:04;;;;;;;67.78;23.17;;;5.90;99.90;;;;;;5012704;28;20048;-51
2022/01/27 08:04:30;;;;;;;61.75;23.17;;;6.00;99.90;;;;;;5010811;28;20401;-49
2022/01/27 08:06:56;;;;;;;59.70;22.88;;;6.00;99.90;;;;;;4993794;28;20044;-49
2022/01/27 08:09:22;;;;;;;65.18;22.98;;;6.10;99.90;;;;;;5012622;28;20042;-48
2022/01/27 08:11:48;;;;;;;63.80;22.25;;;6.10;99.90;;;;;;5012308;28;20042;-51
2022/01/27 08:14:14;;;;;;;65.85;21.50;;;6.20;99.90;;;;;;5012270;28;20099;-50
2022/01/27 08:16:39;;;;;;;56.90;20.60;;;6.20;99.90;;;;;;5017751;28;20030;-52
2022/01/27 08:19:05;;;;;;;67.88;21.65;;;6.30;99.90;;;;;;5012245;28;20042;-55
2022/01/27 08:21:31;;;;;;;70.70;21.73;;;6.30;99.90;;;;;;5011697;28;20045;-51
2022/01/27 08:23:58;;;;;;;62.45;21.13;;;6.30;99.90;;;;;;5011126;28;20085;-52
2022/01/27 08:26:37;;;;;;;53.97;20.30;;;6.30;99.90;;;;;;5022643;28;20068;-53
2022/01/27 08:29:18;;;;;;;52.97;20.63;;;6.40;99.90;;;;;;5024905;28;20033;-50
2022/01/27 08:34:30;;;;;;;59.70;21.45;;;6.30;99.90;;;;;;5021400;28;20448;-52
2022/01/27 08:36:57;;;;;;;47.78;18.48;;;6.30;99.90;;;;;;5023160;28;20051;-51
2022/01/27 08:39:24;;;;;;;56.55;21.33;;;6.40;99.90;;;;;;5022481;28;20029;-51
2022/01/27 08:41:49;;;;;;;64.85;20.45;;;6.40;99.90;;;;;;5021917;28;20041;-53
2022/01/27 08:44:15;;;;;;;64.72;20.40;;;6.40;99.90;;;;;;5022809;28;20042;-55
2022/01/27 08:46:41;;;;;;;56.20;21.38;;;6.40;99.90;;;;;;5006500;28;20324;-52
2022/01/27 08:49:07;;;;;;;58.17;20.42;;;6.40;99.90;;;;;;5023545;28;20048;-51
2022/01/27 08:51:33;;;;;;;51.47;19.63;;;6.40;99.90;;;;;;5005980;28;20045;-50
2022/01/27 08:53:59;;;;;;;61.65;18.90;;;6.40;99.90;;;;;;5002722;28;20033;-49
2022/01/27 08:56:25;;;;;;;58.05;18.35;;;6.50;99.90;;;;;;5023572;28;20060;-52
2022/01/27 08:58:50;;;;;;;52.08;17.92;;;6.60;99.90;;;;;;5023389;28;20432;-52
2022/01/27 09:01:16;;;;;;;47.40;18.63;;;6.50;99.90;;;;;;5022851;28;20046;-51
2022/01/27 09:03:42;;;;;;;58.53;17.42;;;6.50;99.90;;;;;;5022176;28;20099;-50
2022/01/27 09:06:08;;;;;;;58.78;17.98;;;6.50;99.90;;;;;;5023103;28;20435;-52
2022/01/27 09:08:34;;;;;;;48.80;15.70;;;6.60;99.90;;;;;;5020828;28;20037;-50
2022/01/27 09:10:59;;;;;;;53.28;17.08;;;6.70;99.90;;;;;;4997305;28;20033;-54
2022/01/27 09:13:25;;;;;;;48.88;16.60;;;6.70;99.90;;;;;;5019426;28;20021;-52
2022/01/27 09:15:51;;;;;;;49.15;17.70;;;6.70;99.90;;;;;;5020716;28;20440;-55
2022/01/27 09:18:17;;;;;;;43.13;14.05;;;6.80;99.90;;;;;;5021643;28;20069;-50
2022/01/27 09:20:43;;;;;;;40.35;14.50;;;6.80;99.90;;;;;;5020344;28;20037;-53
2022/01/27 09:23:14;;;;;;;53.42;15.95;;;6.90;99.90;;;;;;5020008;28;20044;-49
2022/01/27 09:25:44;;;;;;;43.00;14.35;;;7.00;99.90;;;;;;4983671;28;1089249;-51
2022/01/27 09:28:12;;;;;;;42.40;15.52;;;6.90;99.90;;;;;;5022763;28;20080;-52
2022/01/27 09:30:38;;;;;;;35.92;13.05;;;6.90;99.90;;;;;;5022397;28;20087;-53
2022/01/27 09:33:04;;;;;;;36.83;12.65;;;7.00;99.90;;;;;;5022556;28;20038;-49
2022/01/27 09:35:31;;;;;;;34.22;11.77;;;7.00;99.90;;;;;;5022020;28;20033;-53
2022/01/27 09:37:58;;;;;;;39.85;12.52;;;7.00;99.90;;;;;;5022387;28;20038;-52
2022/01/27 09:40:25;;;;;;;36.75;12.27;;;7.00;99.90;;;;;;5022197;28;20084;-50
2022/01/27 09:42:53;;;;;;;44.42;11.45;;;7.00;99.90;;;;;;5024169;28;20068;-54
2022/01/27 09:45:20;;;;;;;34.75;11.30;;;7.10;99.90;;;;;;5009103;28;20041;-50
2022/01/27 09:48:05;;;;;;;39.35;12.10;;;7.10;99.90;;;;;;5026880;28;20486;-51
2022/01/27 09:51:12;;;;;;;39.85;11.35;;;7.40;99.90;;;;;;5026679;28;20073;-51
2022/01/27 09:53:35;;;;;;;36.13;10.70;;;7.20;99.90;;;;;;5025563;28;20373;-52
2022/01/27 09:56:01;;;;;;;30.30;9.43;;;7.20;99.90;;;;;;5025562;28;20040;-54
2022/01/27 09:58:27;;;;;;;34.67;10.65;;;7.30;99.90;;;;;;4993134;28;20042;-55
2022/01/27 10:00:53;;;;;;;33.25;10.20;;;7.30;99.90;;;;;;5025557;28;20038;-54
2022/01/27 10:03:19;;;;;;;37.78;10.75;;;7.30;99.90;;;;;;5025240;28;20452;-53
2022/01/27 10:05:45;;;;;;;37.42;9.88;;;7.40;99.90;;;;;;5007339;28;20477;-53
2022/01/27 10:08:16;;;;;;;34.67;11.10;;;7.30;99.90;;;;;;5026080;28;20042;-50
2022/01/27 10:10:51;;;;;;;31.30;10.60;;;7.30;99.90;;;;;;5025731;28;20064;-49
2022/01/27 10:13:37;;;;;;;31.38;10.07;;;7.40;99.90;;;;;;5025902;28;20038;-52
2022/01/27 10:16:04;;;;;;;29.75;10.18;;;7.40;99.90;;;;;;5029142;28;20045;-52
2022/01/27 10:18:35;;;;;;;33.83;9.48;;;7.50;99.90;;;;;;5032889;28;20045;-53
2022/01/27 10:21:02;;;;;;;32.53;9.40;;;7.50;99.90;;;;;;5031006;28;20124;-51
2022/01/27 10:23:32;;;;;;;30.80;9.77;;;7.60;99.90;;;;;;5032204;28;20099;-53
2022/01/27 10:26:13;;;;;;;33.33;9.25;;;7.60;99.90;;;;;;5026780;28;20064;-53
2022/01/27 10:31:24;;;;;;;25.02;8.02;;;7.60;99.90;;;;;;5020972;28;20125;-54
2022/01/27 10:34:03;;;;;;;28.38;9.15;;;7.60;99.90;;;;;;5017333;28;20034;-51
2022/01/27 10:36:31;;;;;;;33.38;9.13;;;7.60;99.90;;;;;;5026356;28;20387;-49
2022/01/27 10:38:59;;;;;;;28.58;9.60;;;7.60;99.90;;;;;;5031806;28;20030;-52
2022/01/27 10:41:28;;;;;;;24.38;8.02;;;7.60;99.90;;;;;;5022302;28;20038;-53
2022/01/27 10:44:15;;;;;;;31.40;9.35;;;7.60;99.90;;;;;;5022400;28;20044;-55
2022/01/27 10:47:06;;;;;;;28.00;8.50;;;7.60;99.90;;;;;;5019954;28;20038;-50
2022/01/27 10:49:36;;;;;;;24.38;8.43;;;7.60;99.90;;;;;;5034047;28;20037;-51
2022/01/27 10:52:03;;;;;;;32.92;10.52;;;7.60;99.90;;;;;;5018215;28;20034;-51
2022/01/27 10:54:39;;;;;;;36.72;9.27;;;7.60;99.90;;;;;;5018682;28;20030;-54
2022/01/27 10:57:12;;;;;;;23.13;8.23;;;7.60;99.90;;;;;;5017859;28;20037;-49
2022/01/27 10:59:41;;;;;;;28.45;8.52;;;7.70;99.90;;;;;;5015851;28;20034;-51
2022/01/27 11:02:09;;;;;;;27.88;8.95;;;7.70;99.90;;;;;;5018181;28;20038;-51
2022/01/27 11:04:40;;;;;;;25.38;8.10;;;7.90;99.90;;;;;;5024021;28;20044;-54
2022/01/27 11:07:12;;;;;;;29.38;8.63;;;7.90;99.90;;;;;;5030911;28;20071;-54
2022/01/27 11:09:42;;;;;;;30.75;8.43;;;8.00;99.90;;;;;;5026019;28;20034;-53
2022/01/27 11:12:18;;;;;;;31.02;7.55;;;8.10;99.90;;;;;;5015445;28;20187;-51
2022/01/27 11:14:48;;;;;;;24.80;7.47;;;8.20;99.90;;;;;;5024221;28;20049;-48
2022/01/27 11:17:19;;;;;;;20.52;6.88;;;8.30;99.90;;;;;;5022833;28;20108;-54
2022/01/27 11:27:29;;;;;;;23.73;6.53;;;8.60;99.90;;;;;;5020132;28;20079;-52
2022/01/27 11:30:04;;;;;;;25.75;7.10;;;8.70;99.90;;;;;;5015946;28;20131;-51
2022/01/27 11:32:45;;;;;;;24.10;6.53;;;8.70;99.90;;;;;;5023129;28;20039;-52
2022/01/27 11:35:22;;;;;;;22.58;6.40;;;8.80;99.90;;;;;;5015933;28;20037;-52
2022/01/27 11:37:54;;;;;;;21.23;5.95;;;9.00;99.90;;;;;;5025079;28;20037;-54
2022/01/27 11:40:23;;;;;;;22.00;6.05;;;9.10;99.90;;;;;;5015965;28;20034;-52
2022/01/27 11:42:54;;;;;;;19.35;6.05;;;9.10;99.90;;;;;;5009690;28;20038;-55
2022/01/27 11:45:23;;;;;;;15.07;5.40;;;9.10;99.90;;;;;;5011739;28;20117;-50
2022/01/27 11:47:50;;;;;;;21.65;5.82;;;9.10;99.90;;;;;;5009227;28;20594;-50
2022/01/27 11:50:35;;;;;;;20.60;6.05;;;9.00;99.90;;;;;;4995759;28;20042;-52
2022/01/27 11:53:11;;;;;;;;;;;9.00;99.90;;;;;;5017555;28;20061;-51
2022/01/27 11:55:44;;;;;;;17.42;5.18;;;9.00;99.90;;;;;;5012822;28;19917;-51
2022/01/27 11:58:15;;;;;;;22.55;5.70;;;8.80;99.90;;;;;;5013292;28;20385;-53
2022/01/27 12:01:02;;;;;;;19.65;6.45;;;8.70;99.90;;;;;;5013732;28;20056;-51
2022/01/27 12:03:28;;;;;;;18.95;5.57;;;8.70;99.90;;;;;;5015835;28;20038;-52
2022/01/27 12:06:21;;;;;;;20.92;5.95;;;8.70;99.90;;;;;;5009362;28;20409;-52
2022/01/27 12:08:47;;;;;;;22.63;6.07;;;8.70;99.90;;;;;;5015596;28;20118;-51
2022/01/27 12:11:44;;;;;;;22.83;6.20;;;8.80;99.90;;;;;;5011387;28;20045;-52
2022/01/27 12:14:10;;;;;;;17.02;5.70;;;8.80;99.90;;;;;;4986145;28;20037;-55
2022/01/27 12:19:12;;;;;;;19.13;5.60;;;8.90;99.90;;;;;;5014376;28;20080;-52
2022/01/27 12:21:44;;;;;;;20.63;5.20;;;8.80;99.90;;;;;;5013453;28;20034;-54
2022/01/27 12:27:04;;;;;;;21.52;5.60;;;8.90;99.90;;;;;;5009414;28;20088;-52
2022/01/27 12:29:29;;;;;;;15.63;5.03;;;8.90;99.90;;;;;;4999046;28;20057;-54
2022/01/27 12:31:58;;;;;;;24.20;4.75;;;8.80;99.90;;;;;;4983666;28;20034;-51
2022/01/27 12:34:25;;;;;;;20.45;5.13;;;8.80;99.90;;;;;;5002674;28;20057;-49
2022/01/27 12:37:08;;;;;;;18.45;5.28;;;8.80;99.90;;;;;;5003457;28;20501;-50
2022/01/27 12:39:37;;;;;;;16.65;4.22;;;8.80;99.90;;;;;;5005914;28;20494;-53
2022/01/27 12:42:07;;;;;;;17.73;4.65;;;8.80;99.90;;;;;;5008598;28;20046;-53
2022/01/27 12:44:34;;;;;;;17.77;4.63;;;8.70;99.90;;;;;;5004840;28;20041;-52
2022/01/27 12:47:18;;;;;;;19.05;4.75;;;8.80;99.90;;;;;;5005231;28;20084;-52
2022/01/27 12:49:59;;;;;;;18.42;3.72;;;8.70;99.90;;;;;;5009601;28;20388;-54
2022/01/27 12:52:28;;;;;;;17.23;3.85;;;8.80;99.90;;;;;;5007948;28;20042;-52
2022/01/27 12:55:00;;;;;;;17.67;3.55;;;8.80;99.90;;;;;;5007791;28;20056;-52
2022/01/27 12:57:30;;;;;;;14.80;3.55;;;8.80;99.90;;;;;;5000958;28;20089;-51
2022/01/27 12:59:57;;;;;;;17.08;3.47;;;8.80;99.90;;;;;;4987539;28;20072;-53
2022/01/27 13:02:25;;;;;;;17.05;4.07;;;9.00;99.90;;;;;;5003345;28;20042;-50
2022/01/27 13:04:58;;;;;;;16.63;3.60;;;8.90;99.90;;;;;;5000559;28;20046;-52
2022/01/27 13:07:26;;;;;;;16.17;3.50;;;8.90;99.90;;;;;;5001584;28;20127;-52
2022/01/27 13:10:21;;;;;;;22.63;3.67;;;8.90;99.90;;;;;;5005660;28;20038;-54
2022/01/27 13:12:53;;;;;;;18.85;3.30;;;8.90;99.90;;;;;;4982851;28;20060;-50
2022/01/27 13:15:26;;;;;;;17.95;2.90;;;8.90;99.90;;;;;;5004767;28;20134;-53
2022/01/27 13:18:42;;;;;;;18.85;3.00;;;8.90;99.90;;;;;;5004854;28;20050;-54
2022/01/27 13:20:45;;;;;;;18.20;2.67;;;8.90;99.90;;;;;;4999711;28;20045;-50
2022/01/27 13:23:26;;;;;;;18.67;4.05;;;8.90;99.90;;;;;;5006256;28;20046;-53
2022/01/27 13:25:56;;;;;;;15.82;2.60;;;8.90;99.90;;;;;;5013017;28;20054;-54
2022/01/27 13:28:28;;;;;;;19.63;3.78;;;8.80;99.90;;;;;;5015906;28;20104;-53
2022/01/27 13:31:09;;;;;;;12.68;2.55;;;8.80;99.90;;;;;;5001417;28;20072;-48
2022/01/27 13:33:42;;;;;;;17.85;3.30;;;8.80;99.90;;;;;;5023672;28;20099;-52
2022/01/27 13:36:19;;;;;;;31.50;5.93;;;8.80;99.90;;;;;;5023203;28;20113;-53
2022/01/27 13:41:38;;;;;;;34.50;6.20;;;8.80;99.90;;;;;;5014343;28;20054;-55
2022/01/27 13:44:05;;;;;;;22.95;4.63;;;8.80;99.90;;;;;;5008488;28;20064;-50
2022/01/27 13:46:47;;;;;;;23.77;5.20;;;8.70;99.90;;;;;;5015450;28;20050;-51
2022/01/27 13:49:19;;;;;;;21.45;4.25;;;8.70;99.90;;;;;;5016858;28;20048;-53
2022/01/27 13:52:12;;;;;;;25.85;5.68;;;8.70;99.90;;;;;;5012424;28;20050;-52
2022/01/27 13:54:41;;;;;;;28.10;6.15;;;8.70;99.90;;;;;;5023785;28;20481;-52